sensor_id;sensor_type;location;lat;lon;timestamp;pressure;altitude;pressure_sealevel;temperature;humidity
46944;BME280;32678;43.852;25.952;2023-03-20T00:01:13;101526.53;;;12.05;57.38
46944;BME280;32678;43.852;25.952;2023-03-20T00:06:14;101526.31;;;12.12;56.73
46944;BME280;32678;43.852;25.952;2023-03-20T00:11:20;101533.69;;;12.00;56.84
46944;BME280;32678;43.852;25.952;2023-03-20T00:16:18;101521.94;;;12.13;57.14
46944;BME280;32678;43.852;25.952;2023-03-20T00:21:16;101518.63;;;12.06;56.38
46944;BME280;32678;43.852;25.952;2023-03-20T00:26:14;101507.00;;;12.15;56.34
46944;BME280;32678;43.852;25.952;2023-03-20T00:31:14;101495.97;;;12.32;55.50
46944;BME280;32678;43.852;25.952;2023-03-20T00:36:14;101490.00;;;12.27;55.69
46944;BME280;32678;43.852;25.952;2023-03-20T00:41:17;101486.56;;;12.25;55.76
46944;BME280;32678;43.852;25.952;2023-03-20T00:46:15;101483.97;;;12.23;55.81
46944;BME280;32678;43.852;25.952;2023-03-20T00:51:12;101476.78;;;12.30;55.59
46944;BME280;32678;43.852;25.952;2023-03-20T00:56:14;101483.19;;;12.20;55.98
46944;BME280;32678;43.852;25.952;2023-03-20T01:01:20;101469.31;;;12.14;56.14
46944;BME280;32678;43.852;25.952;2023-03-20T01:06:16;101470.16;;;12.17;55.94
46944;BME280;32678;43.852;25.952;2023-03-20T01:11:14;101467.31;;;12.23;55.93
46944;BME280;32678;43.852;25.952;2023-03-20T01:16:16;101471.72;;;12.22;55.52
46944;BME280;32678;43.852;25.952;2023-03-20T01:21:15;101466.13;;;12.03;55.71
46944;BME280;32678;43.852;25.952;2023-03-20T01:26:19;101473.97;;;12.05;55.89
46944;BME280;32678;43.852;25.952;2023-03-20T01:31:16;101465.84;;;12.12;55.92
46944;BME280;32678;43.852;25.952;2023-03-20T01:36:14;101461.66;;;12.07;55.84
46944;BME280;32678;43.852;25.952;2023-03-20T01:41:13;101458.06;;;12.09;55.67
46944;BME280;32678;43.852;25.952;2023-03-20T01:46:16;101457.47;;;12.00;55.71
46944;BME280;32678;43.852;25.952;2023-03-20T01:51:17;101457.47;;;12.00;55.90
46944;BME280;32678;43.852;25.952;2023-03-20T01:56:15;101459.88;;;12.07;55.48
46944;BME280;32678;43.852;25.952;2023-03-20T02:01:17;101453.09;;;11.99;55.58
46944;BME280;32678;43.852;25.952;2023-03-20T02:06:15;101455.75;;;11.99;55.72
46944;BME280;32678;43.852;25.952;2023-03-20T02:11:30;101455.13;;;11.89;55.69
46944;BME280;32678;43.852;25.952;2023-03-20T02:16:27;101450.75;;;11.56;56.12
46944;BME280;32678;43.852;25.952;2023-03-20T02:26:50;101456.34;;;11.42;56.71
46944;BME280;32678;43.852;25.952;2023-03-20T02:32:05;101453.53;;;11.50;56.63
46944;BME280;32678;43.852;25.952;2023-03-20T02:37:35;101462.16;;;11.53;56.52
46944;BME280;32678;43.852;25.952;2023-03-20T02:42:37;101462.84;;;11.61;56.58
46944;BME280;32678;43.852;25.952;2023-03-20T02:47:36;101460.47;;;11.52;56.36
46944;BME280;32678;43.852;25.952;2023-03-20T02:52:47;101429.47;;;11.33;56.82
46944;BME280;32678;43.852;25.952;2023-03-20T02:57:50;101447.16;;;11.58;56.60
46944;BME280;32678;43.852;25.952;2023-03-20T03:02:50;101448.75;;;11.65;56.51
46944;BME280;32678;43.852;25.952;2023-03-20T03:07:52;101436.75;;;11.88;56.33
46944;BME280;32678;43.852;25.952;2023-03-20T03:12:52;101417.75;;;11.78;56.02
46944;BME280;32678;43.852;25.952;2023-03-20T03:17:50;101439.63;;;11.80;55.63
46944;BME280;32678;43.852;25.952;2023-03-20T03:22:49;101437.28;;;11.68;55.79
46944;BME280;32678;43.852;25.952;2023-03-20T03:27:47;101435.63;;;11.64;56.34
46944;BME280;32678;43.852;25.952;2023-03-20T03:32:47;101437.50;;;11.60;56.08
46944;BME280;32678;43.852;25.952;2023-03-20T03:37:47;101435.44;;;11.71;56.01
46944;BME280;32678;43.852;25.952;2023-03-20T03:42:51;101434.34;;;11.82;55.94
46944;BME280;32678;43.852;25.952;2023-03-20T03:47:49;101439.84;;;11.73;55.92
46944;BME280;32678;43.852;25.952;2023-03-20T03:52:48;101448.25;;;11.51;55.93
46944;BME280;32678;43.852;25.952;2023-03-20T03:57:47;101448.00;;;11.60;55.98
46944;BME280;32678;43.852;25.952;2023-03-20T04:02:48;101439.22;;;11.61;56.01
46944;BME280;32678;43.852;25.952;2023-03-20T04:07:47;101431.09;;;11.70;55.87
46944;BME280;32678;43.852;25.952;2023-03-20T04:12:48;101434.81;;;11.96;55.18
46944;BME280;32678;43.852;25.952;2023-03-20T04:17:45;101436.53;;;11.97;54.53
46944;BME280;32678;43.852;25.952;2023-03-20T04:22:46;101436.91;;;11.83;54.97
46944;BME280;32678;43.852;25.952;2023-03-20T04:27:44;101444.53;;;11.58;55.34
46944;BME280;32678;43.852;25.952;2023-03-20T04:32:51;101447.53;;;11.45;56.28
46944;BME280;32678;43.852;25.952;2023-03-20T04:37:58;101449.38;;;11.41;57.02
46944;BME280;32678;43.852;25.952;2023-03-20T04:43:01;101451.59;;;11.56;56.87
46944;BME280;32678;43.852;25.952;2023-03-20T04:47:58;101457.75;;;11.55;57.09
46944;BME280;32678;43.852;25.952;2023-03-20T04:52:56;101461.03;;;11.63;57.36
46944;BME280;32678;43.852;25.952;2023-03-20T04:57:55;101456.19;;;11.48;57.72
46944;BME280;32678;43.852;25.952;2023-03-20T05:02:52;101469.41;;;11.44;57.79
46944;BME280;32678;43.852;25.952;2023-03-20T05:07:49;101484.88;;;11.20;58.71
46944;BME280;32678;43.852;25.952;2023-03-20T05:12:57;101473.13;;;11.00;58.93
46944;BME280;32678;43.852;25.952;2023-03-20T05:18:05;101491.00;;;11.21;58.83
46944;BME280;32678;43.852;25.952;2023-03-20T05:23:21;101493.47;;;11.28;58.25
46944;BME280;32678;43.852;25.952;2023-03-20T05:28:41;101497.47;;;11.06;57.82
46944;BME280;32678;43.852;25.952;2023-03-20T05:34:00;101487.16;;;11.34;57.94
46944;BME280;32678;43.852;25.952;2023-03-20T05:39:22;101494.66;;;11.49;57.23
46944;BME280;32678;43.852;25.952;2023-03-20T05:44:40;101503.75;;;11.36;56.95
46944;BME280;32678;43.852;25.952;2023-03-20T05:49:55;101515.13;;;11.37;57.54
46944;BME280;32678;43.852;25.952;2023-03-20T05:55:00;101513.81;;;11.54;57.27
46944;BME280;32678;43.852;25.952;2023-03-20T06:00:18;101502.66;;;11.45;57.61
46944;BME280;32678;43.852;25.952;2023-03-20T06:05:15;101503.66;;;11.41;58.23
46944;BME280;32678;43.852;25.952;2023-03-20T06:10:18;101490.72;;;11.67;57.81
46944;BME280;32678;43.852;25.952;2023-03-20T06:15:18;101485.31;;;11.73;57.67
46944;BME280;32678;43.852;25.952;2023-03-20T06:20:22;101484.06;;;11.88;57.22
46944;BME280;32678;43.852;25.952;2023-03-20T06:25:19;101489.22;;;11.92;57.35
46944;BME280;32678;43.852;25.952;2023-03-20T06:30:18;101500.41;;;11.99;57.85
46944;BME280;32678;43.852;25.952;2023-03-20T06:35:15;101498.50;;;12.05;57.52
46944;BME280;32678;43.852;25.952;2023-03-20T06:40:15;101494.88;;;12.09;57.24
46944;BME280;32678;43.852;25.952;2023-03-20T06:45:13;101506.38;;;12.05;57.06
46944;BME280;32678;43.852;25.952;2023-03-20T06:50:26;101505.72;;;11.28;59.14
46944;BME280;32678;43.852;25.952;2023-03-20T06:55:23;101504.97;;;10.84;60.44
46944;BME280;32678;43.852;25.952;2023-03-20T07:00:21;101507.69;;;10.38;62.30
46944;BME280;32678;43.852;25.952;2023-03-20T07:05:20;101508.63;;;10.36;62.86
46944;BME280;32678;43.852;25.952;2023-03-20T07:10:19;101505.88;;;10.83;62.16
46944;BME280;32678;43.852;25.952;2023-03-20T07:15:36;101503.59;;;11.05;60.82
46944;BME280;32678;43.852;25.952;2023-03-20T07:27:20;101495.78;;;11.76;59.36
46944;BME280;32678;43.852;25.952;2023-03-20T08:11:47;101507.19;;;12.97;56.29
46944;BME280;32678;43.852;25.952;2023-03-20T08:17:24;101507.63;;;12.83;56.54
46944;BME280;32678;43.852;25.952;2023-03-20T08:24:06;101504.00;;;12.58;57.80
46944;BME280;32678;43.852;25.952;2023-03-20T09:32:25;101467.25;;;14.14;54.39
46944;BME280;32678;43.852;25.952;2023-03-20T09:48:55;101442.19;;;14.51;52.47
46944;BME280;32678;43.852;25.952;2023-03-20T09:53:55;101424.44;;;14.54;52.38
46944;BME280;32678;43.852;25.952;2023-03-20T09:58:57;101444.72;;;14.76;52.34
46944;BME280;32678;43.852;25.952;2023-03-20T10:03:58;101438.47;;;14.78;52.31
46944;BME280;32678;43.852;25.952;2023-03-20T10:08:56;101434.59;;;14.87;52.49
46944;BME280;32678;43.852;25.952;2023-03-20T10:14:01;101405.72;;;14.82;52.08
46944;BME280;32678;43.852;25.952;2023-03-20T10:19:06;101424.31;;;15.01;50.57
46944;BME280;32678;43.852;25.952;2023-03-20T10:24:10;101415.44;;;15.03;48.35
46944;BME280;32678;43.852;25.952;2023-03-20T10:29:15;101408.72;;;15.16;48.91
46944;BME280;32678;43.852;25.952;2023-03-20T10:34:23;101397.91;;;15.23;50.42
46944;BME280;32678;43.852;25.952;2023-03-20T10:39:31;101410.66;;;15.33;50.88
46944;BME280;32678;43.852;25.952;2023-03-20T10:44:32;101414.56;;;15.45;50.91
46944;BME280;32678;43.852;25.952;2023-03-20T10:49:33;101402.78;;;15.53;50.98
46944;BME280;32678;43.852;25.952;2023-03-20T10:54:34;101400.50;;;15.65;50.60
46944;BME280;32678;43.852;25.952;2023-03-20T10:59:33;101385.75;;;15.79;50.19
46944;BME280;32678;43.852;25.952;2023-03-20T11:04:33;101385.69;;;15.81;49.54
46944;BME280;32678;43.852;25.952;2023-03-20T11:09:35;101375.56;;;15.90;49.54
46944;BME280;32678;43.852;25.952;2023-03-20T11:14:45;101367.28;;;15.98;49.07
46944;BME280;32678;43.852;25.952;2023-03-20T11:19:43;101364.50;;;16.01;48.52
46944;BME280;32678;43.852;25.952;2023-03-20T11:24:41;101346.06;;;15.99;46.69
46944;BME280;32678;43.852;25.952;2023-03-20T11:29:38;101343.06;;;16.07;46.86
46944;BME280;32678;43.852;25.952;2023-03-20T11:40:13;101334.44;;;16.22;46.76
46944;BME280;32678;43.852;25.952;2023-03-20T11:45:14;101335.25;;;16.23;45.76
46944;BME280;32678;43.852;25.952;2023-03-20T11:50:50;101324.16;;;16.33;45.80
46944;BME280;32678;43.852;25.952;2023-03-20T11:56:10;101319.00;;;16.49;44.48
46944;BME280;32678;43.852;25.952;2023-03-20T12:01:11;101309.34;;;16.48;45.81
46944;BME280;32678;43.852;25.952;2023-03-20T12:06:12;101295.56;;;16.60;45.84
46944;BME280;32678;43.852;25.952;2023-03-20T12:11:20;101282.22;;;16.62;46.38
46944;BME280;32678;43.852;25.952;2023-03-20T12:16:20;101284.16;;;16.58;46.46
46944;BME280;32678;43.852;25.952;2023-03-20T12:21:21;101275.88;;;16.66;46.17
46944;BME280;32678;43.852;25.952;2023-03-20T12:26:20;101263.47;;;16.66;46.35
46944;BME280;32678;43.852;25.952;2023-03-20T12:31:22;101255.69;;;16.63;46.12
46944;BME280;32678;43.852;25.952;2023-03-20T12:36:24;101249.16;;;16.70;46.29
46944;BME280;32678;43.852;25.952;2023-03-20T12:41:23;101247.97;;;16.59;45.73
46944;BME280;32678;43.852;25.952;2023-03-20T12:46:24;101244.72;;;16.71;46.08
46944;BME280;32678;43.852;25.952;2023-03-20T12:51:23;101240.75;;;16.79;46.46
46944;BME280;32678;43.852;25.952;2023-03-20T12:56:26;101235.50;;;16.78;46.08
46944;BME280;32678;43.852;25.952;2023-03-20T13:01:28;101229.03;;;16.83;45.52
46944;BME280;32678;43.852;25.952;2023-03-20T13:06:29;101227.88;;;16.89;46.33
46944;BME280;32678;43.852;25.952;2023-03-20T13:11:34;101218.75;;;16.95;45.96
46944;BME280;32678;43.852;25.952;2023-03-20T13:16:35;101216.75;;;17.00;45.13
46944;BME280;32678;43.852;25.952;2023-03-20T13:21:37;101214.34;;;17.11;44.58
46944;BME280;32678;43.852;25.952;2023-03-20T13:26:37;101219.13;;;17.37;44.81
46944;BME280;32678;43.852;25.952;2023-03-20T13:31:38;101209.66;;;17.33;45.20
46944;BME280;32678;43.852;25.952;2023-03-20T13:36:41;101205.56;;;17.43;44.57
46944;BME280;32678;43.852;25.952;2023-03-20T13:41:44;101200.94;;;17.64;44.12
46944;BME280;32678;43.852;25.952;2023-03-20T13:46:43;101193.97;;;17.61;44.49
46944;BME280;32678;43.852;25.952;2023-03-20T13:51:43;101181.06;;;17.87;42.52
46944;BME280;32678;43.852;25.952;2023-03-20T13:56:47;101175.16;;;17.66;43.94
46944;BME280;32678;43.852;25.952;2023-03-20T14:01:49;101183.19;;;17.64;43.98
46944;BME280;32678;43.852;25.952;2023-03-20T14:06:51;101176.34;;;17.60;44.02
46944;BME280;32678;43.852;25.952;2023-03-20T14:11:50;101170.53;;;17.54;43.91
46944;BME280;32678;43.852;25.952;2023-03-20T14:16:54;101170.34;;;17.57;44.34
46944;BME280;32678;43.852;25.952;2023-03-20T14:21:55;101166.41;;;17.48;44.24
46944;BME280;32678;43.852;25.952;2023-03-20T14:27:04;101144.75;;;17.40;45.14
46944;BME280;32678;43.852;25.952;2023-03-20T14:32:02;101145.47;;;17.44;45.04
46944;BME280;32678;43.852;25.952;2023-03-20T14:37:03;101153.72;;;17.38;44.89
46944;BME280;32678;43.852;25.952;2023-03-20T14:42:16;101138.09;;;17.33;44.64
46944;BME280;32678;43.852;25.952;2023-03-20T14:47:32;101140.88;;;17.30;44.57
46944;BME280;32678;43.852;25.952;2023-03-20T14:52:34;101128.59;;;17.29;45.00
46944;BME280;32678;43.852;25.952;2023-03-20T14:57:44;101129.59;;;17.26;45.23
46944;BME280;32678;43.852;25.952;2023-03-20T15:08:02;101130.22;;;17.31;45.41
46944;BME280;32678;43.852;25.952;2023-03-20T15:13:01;101137.03;;;17.36;45.46
46944;BME280;32678;43.852;25.952;2023-03-20T15:18:03;101114.31;;;17.31;45.40
46944;BME280;32678;43.852;25.952;2023-03-20T15:23:00;101130.03;;;17.50;45.18
46944;BME280;32678;43.852;25.952;2023-03-20T15:27:58;101129.78;;;17.55;45.29
46944;BME280;32678;43.852;25.952;2023-03-20T15:32:56;101115.50;;;17.57;44.97
46944;BME280;32678;43.852;25.952;2023-03-20T15:37:53;101122.13;;;17.66;45.07
46944;BME280;32678;43.852;25.952;2023-03-20T15:42:52;101118.81;;;17.62;44.88
46944;BME280;32678;43.852;25.952;2023-03-20T15:47:58;101113.81;;;17.56;44.92
46944;BME280;32678;43.852;25.952;2023-03-20T15:52:56;101113.19;;;17.51;45.21
46944;BME280;32678;43.852;25.952;2023-03-20T15:57:54;101124.91;;;17.47;44.86
46944;BME280;32678;43.852;25.952;2023-03-20T16:02:52;101132.50;;;17.22;44.77
46944;BME280;32678;43.852;25.952;2023-03-20T16:07:50;101114.50;;;17.28;44.90
46944;BME280;32678;43.852;25.952;2023-03-20T16:12:53;101121.59;;;17.28;45.00
46944;BME280;32678;43.852;25.952;2023-03-20T16:17:51;101121.84;;;17.23;45.22
46944;BME280;32678;43.852;25.952;2023-03-20T16:22:50;101135.16;;;17.22;45.13
46944;BME280;32678;43.852;25.952;2023-03-20T16:27:52;101127.28;;;17.20;45.20
46944;BME280;32678;43.852;25.952;2023-03-20T16:32:52;101140.63;;;17.19;45.41
46944;BME280;32678;43.852;25.952;2023-03-20T16:37:55;101143.44;;;17.16;45.31
46944;BME280;32678;43.852;25.952;2023-03-20T16:42:52;101140.19;;;17.11;45.14
46944;BME280;32678;43.852;25.952;2023-03-20T16:47:51;101141.59;;;17.01;44.56
46944;BME280;32678;43.852;25.952;2023-03-20T16:53:09;101144.91;;;16.88;45.12
46944;BME280;32678;43.852;25.952;2023-03-20T16:58:06;101129.34;;;16.82;45.20
46944;BME280;32678;43.852;25.952;2023-03-20T17:03:10;101134.50;;;16.85;45.35
46944;BME280;32678;43.852;25.952;2023-03-20T17:08:12;101125.44;;;16.89;45.53
46944;BME280;32678;43.852;25.952;2023-03-20T17:13:09;101128.00;;;16.91;45.36
46944;BME280;32678;43.852;25.952;2023-03-20T17:18:08;101128.09;;;16.89;45.58
46944;BME280;32678;43.852;25.952;2023-03-20T17:23:09;101129.28;;;16.84;45.66
46944;BME280;32678;43.852;25.952;2023-03-20T17:28:09;101131.84;;;16.85;45.67
46944;BME280;32678;43.852;25.952;2023-03-20T17:33:08;101125.69;;;16.85;45.78
46944;BME280;32678;43.852;25.952;2023-03-20T17:38:08;101127.56;;;16.83;45.60
46944;BME280;32678;43.852;25.952;2023-03-20T17:43:08;101133.41;;;16.72;45.66
46944;BME280;32678;43.852;25.952;2023-03-20T17:48:08;101134.69;;;16.65;45.61
46944;BME280;32678;43.852;25.952;2023-03-20T17:53:14;101139.94;;;16.48;45.72
46944;BME280;32678;43.852;25.952;2023-03-20T17:58:19;101144.53;;;16.44;45.84
46944;BME280;32678;43.852;25.952;2023-03-20T18:03:50;101138.38;;;16.44;45.82
46944;BME280;32678;43.852;25.952;2023-03-20T18:08:46;101142.19;;;16.38;45.92
46944;BME280;32678;43.852;25.952;2023-03-20T18:13:44;101149.16;;;16.41;45.96
46944;BME280;32678;43.852;25.952;2023-03-20T18:18:40;101149.16;;;16.41;45.96
46944;BME280;32678;43.852;25.952;2023-03-20T18:23:38;101147.59;;;16.37;45.78
46944;BME280;32678;43.852;25.952;2023-03-20T18:28:34;101145.63;;;16.40;45.71
46944;BME280;32678;43.852;25.952;2023-03-20T18:33:32;101147.59;;;16.37;45.73
46944;BME280;32678;43.852;25.952;2023-03-20T18:38:31;101140.25;;;16.25;45.95
46944;BME280;32678;43.852;25.952;2023-03-20T18:43:28;101153.03;;;16.17;46.28
46944;BME280;32678;43.852;25.952;2023-03-20T18:48:27;101154.19;;;16.11;46.29
46944;BME280;32678;43.852;25.952;2023-03-20T18:53:26;101145.09;;;16.17;46.21
46944;BME280;32678;43.852;25.952;2023-03-20T18:58:23;101149.25;;;16.03;46.60
46944;BME280;32678;43.852;25.952;2023-03-20T19:03:20;101153.16;;;16.14;46.40
46944;BME280;32678;43.852;25.952;2023-03-20T19:08:19;101151.25;;;16.17;46.10
46944;BME280;32678;43.852;25.952;2023-03-20T19:13:18;101152.69;;;16.06;46.27
46944;BME280;32678;43.852;25.952;2023-03-20T19:18:15;101149.47;;;15.99;46.35
46944;BME280;32678;43.852;25.952;2023-03-20T19:23:13;101153.38;;;16.09;46.06
46944;BME280;32678;43.852;25.952;2023-03-20T19:28:15;101127.56;;;15.97;45.88
46944;BME280;32678;43.852;25.952;2023-03-20T19:33:18;101142.56;;;15.96;45.87
46944;BME280;32678;43.852;25.952;2023-03-20T19:38:15;101143.44;;;15.97;45.91
46944;BME280;32678;43.852;25.952;2023-03-20T19:43:12;101149.72;;;15.94;45.74
46944;BME280;32678;43.852;25.952;2023-03-20T19:48:12;101140.06;;;15.93;45.60
46944;BME280;32678;43.852;25.952;2023-03-20T19:53:12;101139.09;;;15.77;45.82
46944;BME280;32678;43.852;25.952;2023-03-20T19:58:13;101142.38;;;15.82;45.64
46944;BME280;32678;43.852;25.952;2023-03-20T20:03:15;101140.72;;;15.80;45.91
46944;BME280;32678;43.852;25.952;2023-03-20T20:08:15;101111.19;;;15.72;45.86
46944;BME280;32678;43.852;25.952;2023-03-20T20:13:32;101133.94;;;15.74;45.42
46944;BME280;32678;43.852;25.952;2023-03-20T20:18:29;101139.22;;;15.74;45.49
46944;BME280;32678;43.852;25.952;2023-03-20T20:23:27;101112.66;;;15.77;47.35
46944;BME280;32678;43.852;25.952;2023-03-20T20:28:23;101123.16;;;15.79;46.79
46944;BME280;32678;43.852;25.952;2023-03-20T20:33:21;101123.91;;;15.64;46.01
46944;BME280;32678;43.852;25.952;2023-03-20T20:38:24;101126.41;;;15.67;45.45
46944;BME280;32678;43.852;25.952;2023-03-20T20:43:41;101130.19;;;15.61;45.61
46944;BME280;32678;43.852;25.952;2023-03-20T20:48:58;101120.31;;;15.46;46.68
46944;BME280;32678;43.852;25.952;2023-03-20T20:54:11;101121.34;;;15.25;46.92
46944;BME280;32678;43.852;25.952;2023-03-20T20:59:09;101115.69;;;15.13;46.48
46944;BME280;32678;43.852;25.952;2023-03-20T21:04:06;101093.31;;;15.02;46.35
46944;BME280;32678;43.852;25.952;2023-03-20T21:09:03;101109.59;;;15.11;47.36
46944;BME280;32678;43.852;25.952;2023-03-20T21:13:59;101106.31;;;15.06;48.08
46944;BME280;32678;43.852;25.952;2023-03-20T21:18:57;101115.09;;;14.88;51.24
46944;BME280;32678;43.852;25.952;2023-03-20T21:23:54;101122.13;;;14.88;53.04
46944;BME280;32678;43.852;25.952;2023-03-20T21:28:50;101126.13;;;14.96;53.96
46944;BME280;32678;43.852;25.952;2023-03-20T21:33:52;101122.34;;;14.83;55.29
46944;BME280;32678;43.852;25.952;2023-03-20T21:38:50;101122.50;;;14.80;55.08
46944;BME280;32678;43.852;25.952;2023-03-20T21:44:05;101112.97;;;14.76;54.84
46944;BME280;32678;43.852;25.952;2023-03-20T21:49:02;101106.03;;;14.94;55.11
46944;BME280;32678;43.852;25.952;2023-03-20T21:54:20;101110.59;;;14.51;57.11
46944;BME280;32678;43.852;25.952;2023-03-20T21:59:37;101104.22;;;14.35;57.86
46944;BME280;32678;43.852;25.952;2023-03-20T22:04:54;101104.53;;;14.27;57.15
46944;BME280;32678;43.852;25.952;2023-03-20T22:10:11;101114.97;;;14.30;57.35
46944;BME280;32678;43.852;25.952;2023-03-20T22:15:28;101111.81;;;14.43;56.76
46944;BME280;32678;43.852;25.952;2023-03-20T22:20:45;101113.03;;;14.56;55.98
46944;BME280;32678;43.852;25.952;2023-03-20T22:26:05;101103.19;;;14.59;55.41
46944;BME280;32678;43.852;25.952;2023-03-20T22:31:23;101092.50;;;14.81;54.82
46944;BME280;32678;43.852;25.952;2023-03-20T22:36:39;101082.91;;;14.80;54.52
46944;BME280;32678;43.852;25.952;2023-03-20T22:41:57;101088.94;;;14.82;54.22
46944;BME280;32678;43.852;25.952;2023-03-20T22:47:16;101075.00;;;14.19;55.91
46944;BME280;32678;43.852;25.952;2023-03-20T22:52:13;101085.19;;;14.27;55.09
46944;BME280;32678;43.852;25.952;2023-03-20T22:57:25;101081.00;;;14.23;56.23
46944;BME280;32678;43.852;25.952;2023-03-20T23:02:40;101085.94;;;14.30;57.71
46944;BME280;32678;43.852;25.952;2023-03-20T23:07:37;101084.09;;;14.32;57.12
46944;BME280;32678;43.852;25.952;2023-03-20T23:12:35;101082.31;;;14.33;57.01
46944;BME280;32678;43.852;25.952;2023-03-20T23:17:33;101075.63;;;14.04;58.41
46944;BME280;32678;43.852;25.952;2023-03-20T23:22:30;101064.09;;;14.27;57.88
46944;BME280;32678;43.852;25.952;2023-03-20T23:27:28;101066.00;;;14.45;57.64
46944;BME280;32678;43.852;25.952;2023-03-20T23:32:27;101075.53;;;14.07;59.07
46944;BME280;32678;43.852;25.952;2023-03-20T23:37:24;101077.97;;;14.12;60.12
46944;BME280;32678;43.852;25.952;2023-03-20T23:42:21;101070.97;;;14.11;60.32
46944;BME280;32678;43.852;25.952;2023-03-20T23:47:27;101067.50;;;14.30;60.29
46944;BME280;32678;43.852;25.952;2023-03-20T23:52:39;101073.63;;;14.11;60.61
46944;BME280;32678;43.852;25.952;2023-03-20T23:57:45;101081.53;;;13.47;58.27
